Terminal Aerodrome Forecast
Issued by NWS

Home | Current Version | Previous Version | Text Only | Print | Product List | Glossary On
Versions: 1 2 3 4 5 6 7 8 9 10 11 12 13 14 15 16 17 18 19
558
FTUS45 KVEF 302039 AAA
TAFDAG
TAF AMD
KDAG 302039Z 3021/3118 08011KT P6SM BKN030
     FM302200 VRB06KT P6SM VCTS SCT030 SCT120CB BKN250
     FM302300 25014G22KT P6SM VCTS BKN120CB
     FM311000 27011KT P6SM SCT150 BKN250=

USA.gov is the U.S. government's official web portal to all federal, state and local government web resources and services.